Time;durP1;ratioP1;P1;durP2;ratioP2;P2;SDS_P1;SDS_P2;PMS_P1;PMS_P2;Temp;Humidity;BMP_temperature;BMP_pressure;BME280_temperature;BME280_humidity;BME280_pressure;Samples;Min_cycle;Max_cycle;Signal;HPM_P1;HPM_P2
2023/07/09 00:02:19;;;;;;;;;;;;;;;23.51;34.67;102161.00;5057079;28;20007;-87
2023/07/09 00:04:44;;;;;;;;;;;;;;;23.44;34.54;102162.50;5057000;28;20059;-87
2023/07/09 00:07:29;;;;;;;;;;;;;;;23.39;34.58;102165.34;5056346;28;20347;-87
2023/07/09 00:09:55;;;;;;;;;;;;;;;23.33;34.73;102163.78;5058613;28;20011;-87
2023/07/09 00:12:20;;;;;;;;;;;;;;;23.27;34.81;102170.47;5057978;28;20015;-87
2023/07/09 00:14:46;;;;;;;;;;;;;;;23.25;34.85;102170.78;5056417;28;20007;-87
2023/07/09 00:17:12;;;;;;;;;;;;;;;23.21;34.90;102170.56;5057045;28;19924;-86
2023/07/09 00:19:38;;;;;;;;;;;;;;;23.20;35.05;102176.34;5057781;28;19952;-86
2023/07/09 00:22:12;;;;;;;;;;;;;;;23.16;34.91;102178.84;5055193;28;19920;-87
2023/07/09 00:24:38;;;;;;;;;;;;;;;23.13;35.16;102173.16;5058758;28;20214;-87
2023/07/09 00:27:04;;;;;;;;;;;;;;;23.10;35.13;102180.03;5057482;28;20065;-87
2023/07/09 00:29:29;;;;;;;;;;;;;;;23.06;35.11;102178.19;5053224;28;19920;-88
2023/07/09 00:31:54;;;;;;;;;;;;;;;23.02;35.00;102177.16;5057614;28;19924;-87
2023/07/09 00:34:21;;;;;;;;;;;;;;;22.96;35.38;102178.34;5056194;28;19920;-87
2023/07/09 00:36:46;;;;;;;;;;;;;;;22.92;35.49;102178.13;5054560;28;19944;-87
2023/07/09 00:39:19;;;;;;;;;;;;;;;22.89;35.31;102173.25;5056328;28;20412;-87
2023/07/09 00:41:46;;;;;;;;;;;;;;;22.85;35.31;102164.03;5056000;28;19925;-87
2023/07/09 00:44:22;;;;;;;;;;;;;;;22.78;35.25;102169.00;5054341;28;19924;-87
2023/07/09 00:46:48;;;;;;;;;;;;;;;22.71;35.46;102169.41;5056038;28;19932;-87
2023/07/09 00:49:16;;;;;;;;;;;;;;;22.65;35.56;102161.56;5055868;28;20474;-87
2023/07/09 00:51:46;;;;;;;;;;;;;;;22.59;35.58;102164.34;5055263;28;19948;-87
2023/07/09 00:54:30;;;;;;;;;;;;;;;22.57;35.71;102157.56;5052798;28;19917;-87
2023/07/09 00:56:58;;;;;;;;;;;;;;;22.55;35.94;102154.31;5051270;28;19940;-87
2023/07/09 00:59:28;;;;;;;;;;;;;;;22.54;35.85;102153.50;5056452;28;20419;-86
2023/07/09 01:01:55;;;;;;;;;;;;;;;22.51;36.07;102151.38;5054156;28;19924;-87
2023/07/09 01:04:21;;;;;;;;;;;;;;;22.45;36.29;102151.75;5052881;28;19920;-87
2023/07/09 01:06:56;;;;;;;;;;;;;;;22.43;36.02;102145.75;5054867;28;19923;-87
2023/07/09 01:09:22;;;;;;;;;;;;;;;22.40;35.83;102147.16;5055778;28;20006;-87
2023/07/09 01:11:47;;;;;;;;;;;;;;;22.39;35.97;102140.06;5058754;28;20015;-85
2023/07/09 01:14:16;;;;;;;;;;;;;;;22.36;35.97;102135.19;5060392;28;19916;-87
2023/07/09 01:16:49;;;;;;;;;;;;;;;22.31;36.07;102147.00;5056888;28;19917;-87
2023/07/09 01:19:16;;;;;;;;;;;;;;;22.25;36.44;102153.63;5057963;28;20388;-87
2023/07/09 01:21:42;;;;;;;;;;;;;;;22.22;36.30;102161.59;5057910;28;19924;-87
2023/07/09 01:24:14;;;;;;;;;;;;;;;22.19;36.30;102159.44;5064734;28;19916;-87
2023/07/09 01:26:40;;;;;;;;;;;;;;;22.17;36.27;102164.38;5057813;28;20019;-87
2023/07/09 01:29:06;;;;;;;;;;;;;;;22.14;36.57;102159.53;5058321;28;20011;-87
2023/07/09 01:31:32;;;;;;;;;;;;;;;22.10;36.60;102161.22;5061535;28;19927;-86
2023/07/09 01:33:58;;;;;;;;;;;;;;;22.07;36.61;102153.59;5058479;28;19952;-86
2023/07/09 01:36:23;;;;;;;;;;;;;;;22.02;37.09;102163.44;5058720;28;19955;-87
2023/07/09 01:38:50;;;;;;;;;;;;;;;21.97;36.84;102162.69;5061120;28;19923;-86
2023/07/09 01:41:16;;;;;;;;;;;;;;;21.94;36.64;102163.28;5056863;28;20373;-87
2023/07/09 01:43:42;;;;;;;;;;;;;;;21.92;36.78;102158.09;5059246;28;20366;-87
2023/07/09 01:46:08;;;;;;;;;;;;;;;21.88;36.64;102162.50;5056851;28;19926;-87
2023/07/09 01:48:40;;;;;;;;;;;;;;;21.84;36.90;102171.56;5056918;28;19923;-87
2023/07/09 01:51:06;;;;;;;;;;;;;;;21.78;36.61;102172.72;5058535;28;19921;-87
2023/07/09 01:53:33;;;;;;;;;;;;;;;21.73;36.91;102165.41;5055057;28;19939;-87
2023/07/09 01:55:59;;;;;;;;;;;;;;;21.67;36.94;102172.00;5059807;28;20289;-86
2023/07/09 01:58:24;;;;;;;;;;;;;;;21.64;37.18;102178.03;5058371;28;19931;-87
2023/07/09 02:00:50;;;;;;;;;;;;;;;21.60;37.04;102177.00;5061749;28;20256;-87
2023/07/09 02:03:17;;;;;;;;;;;;;;;21.57;37.21;102183.03;5058167;28;20496;-87
2023/07/09 02:05:43;;;;;;;;;;;;;;;21.55;36.89;102174.31;5058474;28;19963;-87
2023/07/09 02:08:08;;;;;;;;;;;;;;;21.52;37.19;102175.69;5056411;28;19983;-87
2023/07/09 02:10:33;;;;;;;;;;;;;;;21.50;37.21;102177.06;5064330;28;19924;-87
2023/07/09 02:12:58;;;;;;;;;;;;;;;21.49;37.19;102170.00;5056808;28;19925;-87
2023/07/09 02:15:24;;;;;;;;;;;;;;;21.47;37.21;102172.19;5058221;28;20311;-87
2023/07/09 02:17:49;;;;;;;;;;;;;;;21.45;37.17;102179.88;5060613;28;20400;-87
2023/07/09 02:20:15;;;;;;;;;;;;;;;21.40;37.34;102183.44;5056786;28;19935;-86
2023/07/09 02:22:41;;;;;;;;;;;;;;;21.35;37.26;102186.19;5053757;28;19917;-87
2023/07/09 02:25:07;;;;;;;;;;;;;;;21.31;37.36;102188.69;5053710;28;20501;-87
2023/07/09 02:27:32;;;;;;;;;;;;;;;21.27;37.53;102189.56;5056947;28;19943;-86
2023/07/09 02:29:58;;;;;;;;;;;;;;;21.23;37.57;102189.28;5056439;28;19921;-86
2023/07/09 02:32:25;;;;;;;;;;;;;;;21.17;37.65;102179.50;5057754;28;19916;-86
2023/07/09 02:34:52;;;;;;;;;;;;;;;21.16;37.51;102183.31;5056713;28;20457;-86
2023/07/09 02:37:18;;;;;;;;;;;;;;;21.15;37.73;102184.44;5055017;28;19928;-86
2023/07/09 02:39:43;;;;;;;;;;;;;;;21.12;37.54;102190.44;5056997;28;19971;-87
2023/07/09 02:42:13;;;;;;;;;;;;;;;21.08;37.57;102182.03;5058364;28;19955;-87
2023/07/09 02:44:39;;;;;;;;;;;;;;;21.08;37.32;102175.78;5054550;28;20296;-85
2023/07/09 02:47:05;;;;;;;;;;;;;;;21.03;37.73;102190.25;5057210;28;19959;-86
2023/07/09 02:49:30;;;;;;;;;;;;;;;21.00;37.74;102179.91;5055768;28;19948;-87
2023/07/09 02:51:56;;;;;;;;;;;;;;;20.98;37.90;102181.28;5059103;28;19947;-86
2023/07/09 02:54:21;;;;;;;;;;;;;;;20.97;37.68;102180.47;5054242;28;20396;-86
2023/07/09 02:56:47;;;;;;;;;;;;;;;20.95;37.81;102184.56;5055574;28;19921;-87
2023/07/09 02:59:12;;;;;;;;;;;;;;;20.94;38.05;102175.59;5054709;28;19916;-86
2023/07/09 03:01:37;;;;;;;;;;;;;;;20.93;37.83;102182.13;5060537;28;19925;-87
2023/07/09 03:04:03;;;;;;;;;;;;;;;20.93;38.06;102189.50;5054763;28;20297;-86
2023/07/09 03:06:28;;;;;;;;;;;;;;;20.91;37.77;102194.41;5054441;28;19921;-87
2023/07/09 03:08:54;;;;;;;;;;;;;;;20.88;38.04;102189.53;5057830;28;20008;-87
2023/07/09 03:11:20;;;;;;;;;;;;;;;20.85;38.21;102185.47;5056521;28;19925;-87
2023/07/09 03:13:46;;;;;;;;;;;;;;;20.83;38.13;102195.03;5058173;28;19971;-86
2023/07/09 03:16:11;;;;;;;;;;;;;;;20.80;38.34;102186.28;5054918;28;19956;-87
2023/07/09 03:18:36;;;;;;;;;;;;;;;20.78;38.32;102196.66;5055353;28;19927;-86
2023/07/09 03:21:02;;;;;;;;;;;;;;;20.78;38.40;102188.50;5054821;28;19962;-86
2023/07/09 03:23:27;;;;;;;;;;;;;;;20.74;38.33;102186.63;5052973;28;20063;-85
2023/07/09 03:25:52;;;;;;;;;;;;;;;20.72;38.25;102192.34;5053116;28;19931;-87
2023/07/09 03:28:18;;;;;;;;;;;;;;;20.73;38.39;102191.25;5051388;28;19925;-86
2023/07/09 03:30:44;;;;;;;;;;;;;;;20.75;38.28;102191.78;5057168;28;19959;-87
2023/07/09 03:33:10;;;;;;;;;;;;;;;20.76;38.49;102193.41;5053744;28;19916;-87
2023/07/09 03:35:36;;;;;;;;;;;;;;;20.75;38.43;102205.41;5053431;28;20011;-86
2023/07/09 03:38:01;;;;;;;;;;;;;;;20.77;38.40;102208.66;5055954;28;19917;-86
2023/07/09 03:40:27;;;;;;;;;;;;;;;20.77;38.95;102208.66;5054653;28;19967;-87
2023/07/09 03:42:52;;;;;;;;;;;;;;;20.78;38.90;102210.28;5063130;28;20007;-87
2023/07/09 03:45:17;;;;;;;;;;;;;;;20.80;38.79;102208.09;5052828;28;19924;-87
2023/07/09 03:47:43;;;;;;;;;;;;;;;20.87;38.96;102207.78;5052795;28;20015;-87
2023/07/09 03:50:09;;;;;;;;;;;;;;;20.95;38.64;102204.47;5055012;28;19916;-87
2023/07/09 03:52:35;;;;;;;;;;;;;;;21.09;38.68;102201.91;5063155;28;20205;-86
2023/07/09 03:55:02;;;;;;;;;;;;;;;21.12;39.00;102199.44;5057759;28;19960;-86
2023/07/09 03:57:27;;;;;;;;;;;;;;;21.16;38.56;102201.59;5059194;28;19920;-86
2023/07/09 03:59:53;;;;;;;;;;;;;;;21.18;38.68;102205.66;5054921;28;19931;-86
2023/07/09 04:02:18;;;;;;;;;;;;;;;21.25;38.57;102203.47;5057662;28;19955;-87
2023/07/09 04:04:43;;;;;;;;;;;;;;;21.36;38.69;102212.38;5060170;28;20387;-87
2023/07/09 04:07:09;;;;;;;;;;;;;;;21.46;38.67;102212.28;5053224;28;19917;-87
2023/07/09 04:09:34;;;;;;;;;;;;;;;21.55;38.71;102215.22;5061464;28;20019;-87
2023/07/09 04:12:01;;;;;;;;;;;;;;;21.62;38.70;102216.50;5056413;28;19960;-86
2023/07/09 04:14:26;;;;;;;;;;;;;;;21.67;38.40;102215.66;5058285;28;20344;-87
2023/07/09 04:16:52;;;;;;;;;;;;;;;21.71;38.42;102219.41;5057112;28;19995;-88
2023/07/09 04:19:17;;;;;;;;;;;;;;;21.76;38.75;102207.66;5060391;28;20042;-87
2023/07/09 04:21:42;;;;;;;;;;;;;;;21.82;38.67;102211.97;5058276;28;19955;-87
2023/07/09 04:24:08;;;;;;;;;;;;;;;21.87;38.65;102215.44;5059095;28;19944;-87
2023/07/09 04:26:33;;;;;;;;;;;;;;;21.95;38.32;102223.00;5060756;28;19920;-87
2023/07/09 04:28:59;;;;;;;;;;;;;;;22.08;38.23;102215.25;5059331;28;19974;-87
2023/07/09 04:31:24;;;;;;;;;;;;;;;22.18;38.47;102209.69;5060173;28;19963;-87
2023/07/09 04:33:52;;;;;;;;;;;;;;;22.27;38.00;102216.16;5058727;28;19963;-87
2023/07/09 04:36:18;;;;;;;;;;;;;;;22.40;38.08;102209.97;5058947;28;19924;-87
2023/07/09 04:38:43;;;;;;;;;;;;;;;22.53;37.75;102214.72;5058657;28;20023;-88
2023/07/09 04:41:08;;;;;;;;;;;;;;;22.66;37.79;102215.09;5059638;28;20015;-88
2023/07/09 04:43:33;;;;;;;;;;;;;;;22.78;38.09;102220.94;5056284;28;19921;-89
2023/07/09 04:45:59;;;;;;;;;;;;;;;22.83;38.33;102221.72;5055080;28;20011;-86
2023/07/09 04:48:24;;;;;;;;;;;;;;;22.84;38.12;102223.34;5061198;28;20276;-85
2023/07/09 04:50:50;;;;;;;;;;;;;;;22.89;37.89;102219.72;5063499;28;20445;-87
2023/07/09 04:53:15;;;;;;;;;;;;;;;22.97;38.12;102220.97;5064039;28;19932;-87
2023/07/09 04:55:41;;;;;;;;;;;;;;;23.10;38.08;102217.50;5064284;28;19948;-87
2023/07/09 04:58:06;;;;;;;;;;;;;;;23.21;38.28;102225.25;5060467;28;19971;-86
2023/07/09 05:00:31;;;;;;;;;;;;;;;23.31;37.87;102226.19;5061421;28;20227;-87
2023/07/09 05:02:56;;;;;;;;;;;;;;;23.44;37.66;102222.69;5054295;28;19921;-87
2023/07/09 05:05:23;;;;;;;;;;;;;;;23.57;37.48;102219.22;5058506;28;19924;-87
2023/07/09 05:07:48;;;;;;;;;;;;;;;23.71;37.68;102227.47;5057980;28;19928;-86
2023/07/09 05:10:14;;;;;;;;;;;;;;;23.83;37.36;102226.97;5055863;28;20591;-87
2023/07/09 05:12:50;;;;;;;;;;;;;;;23.94;37.42;102225.66;5057538;28;20019;-88
2023/07/09 05:15:15;;;;;;;;;;;;;;;24.07;37.57;102216.66;5055457;28;19924;-87
2023/07/09 05:17:40;;;;;;;;;;;;;;;24.21;37.15;102216.63;5055624;28;20400;-87
2023/07/09 05:20:06;;;;;;;;;;;;;;;24.35;37.29;102232.00;5056616;28;20718;-88
2023/07/09 05:22:31;;;;;;;;;;;;;;;24.50;37.33;102233.59;5058678;28;19924;-87
2023/07/09 05:24:57;;;;;;;;;;;;;;;24.64;37.31;102236.34;5057429;28;19939;-87
2023/07/09 05:27:22;;;;;;;;;;;;;;;24.78;36.81;102237.13;5058188;28;19939;-87
2023/07/09 05:29:47;;;;;;;;;;;;;;;24.89;36.22;102235.75;5057880;28;20419;-85
2023/07/09 05:32:13;;;;;;;;;;;;;;;25.03;36.35;102232.19;5059180;28;19924;-87
2023/07/09 05:34:38;;;;;;;;;;;;;;;25.16;36.42;102231.34;5058936;28;20404;-87
2023/07/09 05:37:03;;;;;;;;;;;;;;;25.29;36.61;102224.97;5061450;28;19940;-87
2023/07/09 05:39:29;;;;;;;;;;;;;;;25.40;36.34;102218.13;5058053;28;19917;-86
2023/07/09 05:41:54;;;;;;;;;;;;;;;25.54;36.41;102218.06;5058052;28;20347;-86
2023/07/09 05:44:19;;;;;;;;;;;;;;;25.65;36.15;102222.13;5058519;28;20333;-87
2023/07/09 05:46:45;;;;;;;;;;;;;;;25.77;35.64;102219.66;5058466;28;20197;-86
2023/07/09 05:49:10;;;;;;;;;;;;;;;25.92;35.82;102223.94;5054404;28;19920;-86
2023/07/09 05:51:35;;;;;;;;;;;;;;;26.06;35.81;102216.41;5059703;28;20007;-86
2023/07/09 05:54:01;;;;;;;;;;;;;;;26.19;35.75;102218.19;5055059;28;19917;-86
2023/07/09 05:56:26;;;;;;;;;;;;;;;26.34;35.60;102227.13;5056627;28;19925;-86
2023/07/09 05:58:52;;;;;;;;;;;;;;;26.46;35.80;102219.13;5059357;28;20384;-86
2023/07/09 06:01:18;;;;;;;;;;;;;;;26.55;35.76;102221.88;5057946;28;19956;-86
2023/07/09 06:03:43;;;;;;;;;;;;;;;26.62;35.77;102223.03;5057568;28;19944;-86
2023/07/09 06:06:08;;;;;;;;;;;;;;;26.71;35.47;102220.28;5054500;28;20018;-86
2023/07/09 06:08:36;;;;;;;;;;;;;;;26.84;35.73;102222.09;5058035;28;20303;-87
2023/07/09 06:11:02;;;;;;;;;;;;;;;26.94;35.56;102221.78;5054590;28;19920;-86
2023/07/09 06:13:30;;;;;;;;;;;;;;;27.02;35.74;102218.22;5054427;28;20162;-86
2023/07/09 06:15:56;;;;;;;;;;;;;;;27.11;35.68;102221.00;5054859;28;19921;-86
2023/07/09 06:18:23;;;;;;;;;;;;;;;27.19;35.99;102227.59;5060444;28;20376;-85
2023/07/09 06:20:49;;;;;;;;;;;;;;;27.29;35.74;102219.00;5056081;28;20415;-85
2023/07/09 06:23:15;;;;;;;;;;;;;;;27.43;35.45;102222.38;5055377;28;19924;-86
2023/07/09 06:25:40;;;;;;;;;;;;;;;27.62;35.36;102222.00;5055536;28;19931;-86
2023/07/09 06:28:05;;;;;;;;;;;;;;;27.74;35.09;102224.94;5058192;28;19921;-86
2023/07/09 06:30:31;;;;;;;;;;;;;;;27.92;35.13;102223.72;5056026;28;20400;-86
2023/07/09 06:32:56;;;;;;;;;;;;;;;28.08;34.81;102231.44;5056553;28;19920;-86
2023/07/09 06:35:21;;;;;;;;;;;;;;;28.23;34.95;102233.66;5059644;28;19920;-86
2023/07/09 06:37:47;;;;;;;;;;;;;;;28.33;34.51;102230.53;5057795;28;19958;-86
2023/07/09 06:40:12;;;;;;;;;;;;;;;28.44;34.41;102234.53;5057842;28;20003;-86
2023/07/09 06:42:38;;;;;;;;;;;;;;;28.50;34.00;102230.41;5058672;28;19943;-86
2023/07/09 06:45:04;;;;;;;;;;;;;;;28.62;34.17;102234.41;5053055;28;20401;-85
2023/07/09 06:47:29;;;;;;;;;;;;;;;28.73;34.15;102232.88;5053583;28;19921;-86
2023/07/09 06:49:55;;;;;;;;;;;;;;;28.86;33.93;102231.81;5053483;28;20436;-85
2023/07/09 06:52:20;;;;;;;;;;;;;;;29.04;33.61;102238.81;5053221;28;20436;-86
2023/07/09 06:54:45;;;;;;;;;;;;;;;29.18;33.53;102233.81;5055598;28;19932;-85
2023/07/09 06:57:11;;;;;;;;;;;;;;;29.36;33.71;102237.22;5053814;28;19935;-86
2023/07/09 06:59:37;;;;;;;;;;;;;;;29.55;33.78;102236.72;5056055;28;19916;-85
2023/07/09 07:02:03;;;;;;;;;;;;;;;29.74;33.11;102239.75;5053815;28;20004;-86
2023/07/09 07:04:28;;;;;;;;;;;;;;;29.95;33.16;102233.31;5054200;28;20051;-86
2023/07/09 07:06:55;;;;;;;;;;;;;;;30.13;33.00;102240.28;5052061;28;20005;-85
2023/07/09 07:09:20;;;;;;;;;;;;;;;30.30;32.58;102228.97;5054621;28;19927;-85
2023/07/09 07:11:46;;;;;;;;;;;;;;;30.50;32.35;102238.28;5052659;28;19924;-85
2023/07/09 07:14:11;;;;;;;;;;;;;;;30.70;32.30;102236.53;5053778;28;19916;-85
2023/07/09 07:16:36;;;;;;;;;;;;;;;30.88;31.94;102237.91;5054361;28;19927;-85
2023/07/09 07:19:02;;;;;;;;;;;;;;;31.03;31.72;102232.75;5052468;28;20487;-85
2023/07/09 07:21:27;;;;;;;;;;;;;;;31.17;31.70;102238.72;5054340;28;19916;-85
2023/07/09 07:23:52;;;;;;;;;;;;;;;31.31;31.77;102230.84;5053882;28;19979;-85
2023/07/09 07:26:17;;;;;;;;;;;;;;;31.47;31.66;102228.09;5054273;28;20276;-85
2023/07/09 07:28:43;;;;;;;;;;;;;;;31.63;31.23;102233.66;5053606;28;20274;-85
2023/07/09 07:31:08;;;;;;;;;;;;;;;31.77;30.99;102229.28;5054496;28;20304;-85
2023/07/09 07:33:34;;;;;;;;;;;;;;;31.84;30.73;102225.91;5052668;28;19927;-85
2023/07/09 07:35:59;;;;;;;;;;;;;;;31.93;30.86;102220.97;5052239;28;20419;-85
2023/07/09 07:38:24;;;;;;;;;;;;;;;32.07;31.02;102221.31;5053665;28;19973;-86
2023/07/09 07:40:50;;;;;;;;;;;;;;;32.20;30.66;102226.78;5056323;28;19962;-85
2023/07/09 07:43:15;;;;;;;;;;;;;;;32.37;30.18;102229.19;5054755;28;19931;-85
2023/07/09 07:45:41;;;;;;;;;;;;;;;32.52;30.62;102231.13;5052046;28;19958;-84
2023/07/09 07:48:06;;;;;;;;;;;;;;;32.61;30.02;102220.59;5060205;28;19924;-85
2023/07/09 07:50:32;;;;;;;;;;;;;;;32.74;30.01;102222.09;5056231;28;20400;-84
2023/07/09 07:52:57;;;;;;;;;;;;;;;32.87;29.58;102221.97;5055093;28;20586;-84
2023/07/09 07:55:22;;;;;;;;;;;;;;;32.99;29.36;102222.63;5056592;28;19920;-84
2023/07/09 07:57:48;;;;;;;;;;;;;;;33.11;29.13;102223.63;5058872;28;19927;-84
2023/07/09 08:00:13;;;;;;;;;;;;;;;33.27;29.07;102222.38;5056531;28;19931;-84
2023/07/09 08:02:39;;;;;;;;;;;;;;;33.45;28.91;102216.38;5054053;28;19924;-84
2023/07/09 08:05:05;;;;;;;;;;;;;;;33.56;28.40;102223.72;5052438;28;19928;-84
2023/07/09 08:07:30;;;;;;;;;;;;;;;33.70;28.03;102230.69;5054171;28;19917;-84
2023/07/09 08:09:56;;;;;;;;;;;;;;;33.82;28.57;102224.97;5052712;28;19974;-83
2023/07/09 08:12:21;;;;;;;;;;;;;;;33.93;27.86;102225.94;5054291;28;19986;-83
2023/07/09 08:14:46;;;;;;;;;;;;;;;34.05;28.49;102222.16;5056847;28;19920;-84
2023/07/09 08:17:11;;;;;;;;;;;;;;;34.14;27.83;102215.19;5051707;28;20300;-84
2023/07/09 08:19:47;;;;;;;;;;;;;;;34.30;28.12;102212.22;5056455;28;19931;-83
2023/07/09 08:22:13;;;;;;;;;;;;;;;34.47;27.81;102222.00;5054643;28;19970;-83
2023/07/09 08:24:39;;;;;;;;;;;;;;;34.60;27.65;102217.81;5054411;28;19916;-84
2023/07/09 08:27:06;;;;;;;;;;;;;;;34.71;27.57;102215.19;5057164;28;19925;-84
2023/07/09 08:29:31;;;;;;;;;;;;;;;34.84;26.70;102224.91;5055272;28;19990;-83
2023/07/09 08:31:56;;;;;;;;;;;;;;;34.97;27.11;102217.91;5058140;28;20397;-84
2023/07/09 08:34:21;;;;;;;;;;;;;;;35.06;26.64;102212.84;5054955;28;19982;-83
2023/07/09 08:36:47;;;;;;;;;;;;;;;35.14;26.57;102220.09;5052310;28;20007;-83
2023/07/09 08:39:12;;;;;;;;;;;;;;;35.17;26.11;102207.38;5052770;28;20404;-84
2023/07/09 08:41:54;;;;;;;;;;;;;;;35.18;26.44;102206.19;5055310;28;19923;-86
2023/07/09 08:44:20;;;;;;;;;;;;;;;35.34;26.73;102208.75;5056214;28;19946;-89
2023/07/09 08:46:48;;;;;;;;;;;;;;;35.48;26.38;102210.91;5053483;28;20304;-85
2023/07/09 08:49:21;;;;;;;;;;;;;;;35.60;25.70;102214.22;5054102;28;19921;-84
2023/07/09 08:51:48;;;;;;;;;;;;;;;35.69;25.67;102217.47;5055708;28;20014;-84
2023/07/09 08:54:17;;;;;;;;;;;;;;;35.74;25.20;102213.53;5053380;28;19920;-81
2023/07/09 08:56:43;;;;;;;;;;;;;;;35.74;25.45;102210.75;5053614;28;19928;-82
2023/07/09 08:59:11;;;;;;;;;;;;;;;35.85;25.19;102206.06;5053335;28;19919;-83
2023/07/09 09:01:39;;;;;;;;;;;;;;;36.00;25.34;102206.97;5056045;28;19922;-83
2023/07/09 09:04:11;;;;;;;;;;;;;;;36.16;25.15;102203.91;5051985;28;20528;-85
2023/07/09 09:06:38;;;;;;;;;;;;;;;36.29;24.70;102186.44;5051143;28;19932;-84
2023/07/09 09:09:16;;;;;;;;;;;;;;;36.43;24.22;102198.88;5050428;28;19924;-85
2023/07/09 09:11:48;;;;;;;;;;;;;;;36.56;24.52;102197.34;5054091;28;20393;-83
2023/07/09 09:14:26;;;;;;;;;;;;;;;36.73;23.86;102195.84;5052186;28;19928;-82
2023/07/09 09:16:52;;;;;;;;;;;;;;;36.88;23.59;102197.50;5052266;28;19945;-84
2023/07/09 09:19:27;;;;;;;;;;;;;;;37.01;24.05;102198.75;5050568;28;19925;-83
2023/07/09 09:21:58;;;;;;;;;;;;;;;37.19;23.61;102196.00;5049269;28;19921;-83
2023/07/09 09:24:30;;;;;;;;;;;;;;;37.32;22.40;102190.84;5051838;28;19962;-83
2023/07/09 09:26:57;;;;;;;;;;;;;;;37.35;22.85;102192.84;5052857;28;20689;-81
2023/07/09 09:29:23;;;;;;;;;;;;;;;37.41;22.96;102200.44;5051416;28;19921;-81
2023/07/09 09:31:51;;;;;;;;;;;;;;;37.56;22.50;102194.84;5051175;28;20388;-82
2023/07/09 09:34:18;;;;;;;;;;;;;;;37.74;22.96;102202.06;5055015;28;19920;-83
2023/07/09 09:36:43;;;;;;;;;;;;;;;37.90;22.07;102200.88;5053218;28;19920;-84
2023/07/09 09:39:09;;;;;;;;;;;;;;;38.00;21.94;102200.81;5057668;28;19944;-82
2023/07/09 09:41:36;;;;;;;;;;;;;;;37.98;21.34;102194.03;5054098;28;19932;-84
2023/07/09 09:44:02;;;;;;;;;;;;;;;38.00;21.65;102186.84;5069561;28;19917;-84
2023/07/09 09:46:28;;;;;;;;;;;;;;;38.07;20.74;102194.44;5052280;28;19928;-82
2023/07/09 09:48:54;;;;;;;;;;;;;;;38.04;20.38;102193.22;5053922;28;19917;-81
2023/07/09 09:51:19;;;;;;;;;;;;;;;38.08;21.36;102196.03;5051170;28;20296;-83
2023/07/09 09:53:48;;;;;;;;;;;;;;;38.25;21.44;102194.41;5056776;28;20181;-80
2023/07/09 09:56:18;;;;;;;;;;;;;;;38.37;20.55;102193.97;5054282;28;19920;-80
2023/07/09 09:58:43;;;;;;;;;;;;;;;38.53;20.39;102197.09;5055465;28;20447;-82
2023/07/09 10:01:14;;;;;;;;;;;;;;;38.65;20.55;102193.88;5055294;28;19962;-82
2023/07/09 10:03:40;;;;;;;;;;;;;;;38.75;20.07;102194.22;5056023;28;19977;-82
2023/07/09 10:06:11;;;;;;;;;;;;;;;38.77;19.34;102200.22;5055259;28;19928;-82
2023/07/09 10:08:56;;;;;;;;;;;;;;;38.77;19.85;102194.63;5055403;28;20395;-82
2023/07/09 10:11:28;;;;;;;;;;;;;;;38.83;19.38;102198.59;5056372;28;19928;-81
2023/07/09 10:13:56;;;;;;;;;;;;;;;38.92;19.17;102201.75;5070012;28;19920;-82
2023/07/09 10:16:25;;;;;;;;;;;;;;;39.01;19.69;102199.28;5054243;28;19959;-82
2023/07/09 10:18:51;;;;;;;;;;;;;;;39.05;19.52;102190.88;5052772;28;20423;-80
2023/07/09 10:21:26;;;;;;;;;;;;;;;39.11;18.78;102187.22;5057483;28;19924;-80
2023/07/09 10:23:59;;;;;;;;;;;;;;;39.19;19.81;102183.19;5058358;28;19960;-83
2023/07/09 10:26:32;;;;;;;;;;;;;;;39.28;19.66;102183.50;5058212;28;20074;-82
2023/07/09 10:29:18;;;;;;;;;;;;;;;39.39;19.04;102185.44;5053535;28;20054;-82
2023/07/09 10:31:55;;;;;;;;;;;;;;;39.60;19.67;102195.72;5053614;28;19977;-83
2023/07/09 10:34:29;;;;;;;;;;;;;;;39.75;19.83;102189.56;5053081;28;19920;-82
2023/07/09 10:37:13;;;;;;;;;;;;;;;39.92;19.57;102196.22;5052163;28;19927;-84
2023/07/09 10:39:41;;;;;;;;;;;;;;;40.01;18.82;102192.94;5054465;28;19924;-83
2023/07/09 10:42:11;;;;;;;;;;;;;;;39.93;19.02;102186.56;5050355;28;19947;-83
2023/07/09 10:44:40;;;;;;;;;;;;;;;40.06;19.33;102184.88;5052537;28;19920;-82
2023/07/09 10:47:25;;;;;;;;;;;;;;;40.20;18.93;102188.72;5051983;28;20331;-82
2023/07/09 10:49:51;;;;;;;;;;;;;;;40.34;19.31;102191.34;5059160;28;19925;-82
2023/07/09 10:52:22;;;;;;;;;;;;;;;40.44;18.65;102182.03;5053095;28;20467;-84
2023/07/09 10:54:53;;;;;;;;;;;;;;;40.51;17.65;102172.72;5054207;28;20319;-84
2023/07/09 10:57:37;;;;;;;;;;;;;;;40.47;18.15;102179.19;5049512;28;19920;-84
2023/07/09 11:00:03;;;;;;;;;;;;;;;40.53;18.30;102167.47;5056565;28;19943;-84
2023/07/09 11:02:33;;;;;;;;;;;;;;;40.64;18.20;102168.94;5052369;28;20435;-83
2023/07/09 11:05:00;;;;;;;;;;;;;;;40.76;18.37;102170.38;5052932;28;19921;-83
2023/07/09 11:07:43;;;;;;;;;;;;;;;40.80;17.91;102165.50;5053669;28;19920;-84
2023/07/09 11:10:17;;;;;;;;;;;;;;;40.90;17.71;102169.38;5052763;28;19925;-83
2023/07/09 11:12:45;;;;;;;;;;;;;;;40.95;18.04;102164.09;5051670;28;19925;-84
2023/07/09 11:15:13;;;;;;;;;;;;;;;41.13;18.09;102161.03;5051578;28;19935;-82
2023/07/09 11:17:40;;;;;;;;;;;;;;;41.28;18.03;102161.59;5050827;28;19927;-84
2023/07/09 11:20:35;;;;;;;;;;;;;;;41.44;18.00;102160.91;5051320;28;19920;-84
2023/07/09 11:23:05;;;;;;;;;;;;;;;41.55;18.02;102158.72;5040073;28;20043;-83
2023/07/09 11:25:44;;;;;;;;;;;;;;;41.54;17.39;102154.31;5051698;28;19959;-84
2023/07/09 11:28:09;;;;;;;;;;;;;;;41.44;17.62;102156.09;5053092;28;19922;-85
2023/07/09 11:30:45;;;;;;;;;;;;;;;41.33;17.40;102150.66;5049994;28;20102;-84
2023/07/09 11:33:18;;;;;;;;;;;;;;;41.16;17.31;102139.69;5054276;28;19942;-83
2023/07/09 11:35:48;;;;;;;;;;;;;;;40.89;17.75;102137.69;5050694;28;19967;-83
2023/07/09 11:38:24;;;;;;;;;;;;;;;41.00;17.37;102135.50;5049669;28;19924;-82
2023/07/09 11:40:53;;;;;;;;;;;;;;;41.20;17.50;102138.41;5048913;28;21346;-83
2023/07/09 11:43:26;;;;;;;;;;;;;;;41.36;17.32;102123.69;5054864;28;20080;-81
2023/07/09 11:45:51;;;;;;;;;;;;;;;41.58;17.58;102133.34;5050668;28;19921;-83
2023/07/09 11:48:25;;;;;;;;;;;;;;;41.78;17.46;102127.75;5049876;28;20360;-83
2023/07/09 11:50:52;;;;;;;;;;;;;;;42.00;17.28;102122.50;5049946;28;20025;-82
2023/07/09 11:53:20;;;;;;;;;;;;;;;42.16;17.25;102122.59;5053504;28;20449;-82
2023/07/09 11:55:46;;;;;;;;;;;;;;;42.19;16.20;102118.09;5048676;28;19956;-83
2023/07/09 11:58:16;;;;;;;;;;;;;;;42.17;16.55;102115.72;5047536;28;19985;-83
2023/07/09 12:00:43;;;;;;;;;;;;;;;42.21;16.79;102110.84;5050245;28;20313;-83
2023/07/09 12:03:17;;;;;;;;;;;;;;;42.29;16.74;102116.31;5049021;28;19921;-84
2023/07/09 12:05:47;;;;;;;;;;;;;;;42.40;17.05;102105.59;5053409;28;19924;-85
2023/07/09 12:08:14;;;;;;;;;;;;;;;42.57;16.89;102107.25;5050067;28;19952;-83
2023/07/09 12:10:40;;;;;;;;;;;;;;;42.60;16.20;102097.13;5051390;28;19932;-84
2023/07/09 12:13:05;;;;;;;;;;;;;;;42.63;16.45;102105.50;5050268;28;20411;-82
2023/07/09 12:15:31;;;;;;;;;;;;;;;42.70;16.58;102096.88;5054770;28;20006;-82
2023/07/09 12:18:02;;;;;;;;;;;;;;;42.83;16.82;102094.16;5050658;28;20015;-81
2023/07/09 12:20:31;;;;;;;;;;;;;;;42.91;16.01;102087.13;5050642;28;20226;-81
2023/07/09 12:22:56;;;;;;;;;;;;;;;43.00;15.56;102084.50;5050747;28;19928;-81
2023/07/09 12:25:26;;;;;;;;;;;;;;;43.10;16.24;102086.25;5051277;28;19924;-81
2023/07/09 12:27:52;;;;;;;;;;;;;;;43.19;16.42;102082.78;5050017;28;20640;-81
2023/07/09 12:30:17;;;;;;;;;;;;;;;43.27;16.26;102089.84;5050144;28;19997;-82
2023/07/09 12:32:44;;;;;;;;;;;;;;;43.31;15.72;102084.94;5050226;28;19956;-84
2023/07/09 12:35:12;;;;;;;;;;;;;;;43.29;15.45;102090.22;5049023;28;19964;-85
2023/07/09 12:37:37;;;;;;;;;;;;;;;43.32;16.03;102083.69;5049938;28;19943;-83